sensor_id;sensor_type;location;lat;lon;timestamp;temperature;humidity
15143;DHT22;7672;50.834;6.286;2022-07-06T00:00:49;17.70;99.90
15143;DHT22;7672;50.834;6.286;2022-07-06T00:03:16;17.70;99.90
15143;DHT22;7672;50.834;6.286;2022-07-06T00:05:43;17.70;99.90
15143;DHT22;7672;50.834;6.286;2022-07-06T00:08:10;17.70;99.90
15143;DHT22;7672;50.834;6.286;2022-07-06T00:10:37;17.60;99.90
15143;DHT22;7672;50.834;6.286;2022-07-06T00:13:03;17.50;99.90
15143;DHT22;7672;50.834;6.286;2022-07-06T00:15:30;17.70;99.90
15143;DHT22;7672;50.834;6.286;2022-07-06T00:17:57;17.50;99.90
15143;DHT22;7672;50.834;6.286;2022-07-06T00:20:24;17.70;99.90
15143;DHT22;7672;50.834;6.286;2022-07-06T00:22:51;17.50;99.90
15143;DHT22;7672;50.834;6.286;2022-07-06T00:25:17;17.30;99.90
15143;DHT22;7672;50.834;6.286;2022-07-06T00:27:44;17.30;99.90
15143;DHT22;7672;50.834;6.286;2022-07-06T00:30:11;17.20;99.90
15143;DHT22;7672;50.834;6.286;2022-07-06T00:32:38;17.20;99.90
15143;DHT22;7672;50.834;6.286;2022-07-06T00:35:05;17.10;99.90
15143;DHT22;7672;50.834;6.286;2022-07-06T00:37:32;17.10;99.90
15143;DHT22;7672;50.834;6.286;2022-07-06T00:39:59;17.00;99.90
15143;DHT22;7672;50.834;6.286;2022-07-06T00:42:26;17.00;99.90
15143;DHT22;7672;50.834;6.286;2022-07-06T00:44:53;17.00;99.90
15143;DHT22;7672;50.834;6.286;2022-07-06T00:47:19;16.90;99.90
15143;DHT22;7672;50.834;6.286;2022-07-06T00:49:46;17.20;99.90
15143;DHT22;7672;50.834;6.286;2022-07-06T00:52:32;16.70;99.90
15143;DHT22;7672;50.834;6.286;2022-07-06T00:54:59;16.70;99.90
15143;DHT22;7672;50.834;6.286;2022-07-06T00:57:28;16.70;99.90
15143;DHT22;7672;50.834;6.286;2022-07-06T00:59:56;16.70;99.90
15143;DHT22;7672;50.834;6.286;2022-07-06T01:02:23;16.60;99.90
15143;DHT22;7672;50.834;6.286;2022-07-06T01:04:50;16.60;99.90
15143;DHT22;7672;50.834;6.286;2022-07-06T01:07:17;16.50;99.90
15143;DHT22;7672;50.834;6.286;2022-07-06T01:09:44;16.50;99.90
15143;DHT22;7672;50.834;6.286;2022-07-06T01:12:11;16.50;99.90
15143;DHT22;7672;50.834;6.286;2022-07-06T01:14:38;16.50;99.90
15143;DHT22;7672;50.834;6.286;2022-07-06T01:17:05;16.50;99.90
15143;DHT22;7672;50.834;6.286;2022-07-06T01:19:34;16.40;99.90
15143;DHT22;7672;50.834;6.286;2022-07-06T01:22:01;16.40;99.90
15143;DHT22;7672;50.834;6.286;2022-07-06T01:24:27;16.40;99.90
15143;DHT22;7672;50.834;6.286;2022-07-06T01:26:54;16.30;99.90
15143;DHT22;7672;50.834;6.286;2022-07-06T01:29:21;16.30;99.90
15143;DHT22;7672;50.834;6.286;2022-07-06T01:31:50;16.30;99.90
15143;DHT22;7672;50.834;6.286;2022-07-06T01:34:17;16.20;99.90
15143;DHT22;7672;50.834;6.286;2022-07-06T01:36:45;16.20;99.90
15143;DHT22;7672;50.834;6.286;2022-07-06T01:39:12;16.20;99.90
15143;DHT22;7672;50.834;6.286;2022-07-06T01:41:39;16.20;99.90
15143;DHT22;7672;50.834;6.286;2022-07-06T01:44:06;16.10;99.90
15143;DHT22;7672;50.834;6.286;2022-07-06T01:46:33;16.10;99.90
15143;DHT22;7672;50.834;6.286;2022-07-06T01:49:00;16.10;99.90
15143;DHT22;7672;50.834;6.286;2022-07-06T01:51:27;16.10;99.90
15143;DHT22;7672;50.834;6.286;2022-07-06T01:53:54;16.10;99.90
15143;DHT22;7672;50.834;6.286;2022-07-06T01:56:21;16.10;99.90
15143;DHT22;7672;50.834;6.286;2022-07-06T01:58:48;16.00;99.90
15143;DHT22;7672;50.834;6.286;2022-07-06T02:01:17;16.00;99.90
15143;DHT22;7672;50.834;6.286;2022-07-06T02:03:45;16.10;99.90
15143;DHT22;7672;50.834;6.286;2022-07-06T02:06:13;16.10;99.90
15143;DHT22;7672;50.834;6.286;2022-07-06T02:08:41;16.00;99.90
15143;DHT22;7672;50.834;6.286;2022-07-06T02:11:09;16.00;99.90
15143;DHT22;7672;50.834;6.286;2022-07-06T02:13:37;16.00;99.90
15143;DHT22;7672;50.834;6.286;2022-07-06T02:16:04;16.00;99.90
15143;DHT22;7672;50.834;6.286;2022-07-06T02:18:31;16.00;99.90
15143;DHT22;7672;50.834;6.286;2022-07-06T02:20:58;16.00;99.90
15143;DHT22;7672;50.834;6.286;2022-07-06T02:23:25;16.00;99.90
15143;DHT22;7672;50.834;6.286;2022-07-06T02:25:52;16.00;99.90
15143;DHT22;7672;50.834;6.286;2022-07-06T02:28:19;16.00;99.90
15143;DHT22;7672;50.834;6.286;2022-07-06T02:30:47;16.00;99.90
15143;DHT22;7672;50.834;6.286;2022-07-06T02:33:13;16.00;99.90
15143;DHT22;7672;50.834;6.286;2022-07-06T02:35:40;16.00;99.90
15143;DHT22;7672;50.834;6.286;2022-07-06T02:38:10;16.00;99.90
15143;DHT22;7672;50.834;6.286;2022-07-06T02:40:37;16.00;99.90
15143;DHT22;7672;50.834;6.286;2022-07-06T02:43:05;16.00;99.90
15143;DHT22;7672;50.834;6.286;2022-07-06T02:45:32;16.00;99.90
15143;DHT22;7672;50.834;6.286;2022-07-06T02:47:59;16.00;99.90
15143;DHT22;7672;50.834;6.286;2022-07-06T02:50:26;16.00;99.90
15143;DHT22;7672;50.834;6.286;2022-07-06T02:52:53;15.90;99.90
15143;DHT22;7672;50.834;6.286;2022-07-06T02:55:21;15.90;99.90
15143;DHT22;7672;50.834;6.286;2022-07-06T02:57:48;15.90;99.90
15143;DHT22;7672;50.834;6.286;2022-07-06T03:00:16;15.90;99.90
15143;DHT22;7672;50.834;6.286;2022-07-06T03:02:43;15.90;99.90
15143;DHT22;7672;50.834;6.286;2022-07-06T03:05:10;16.00;99.90
15143;DHT22;7672;50.834;6.286;2022-07-06T03:07:37;15.90;99.90
15143;DHT22;7672;50.834;6.286;2022-07-06T03:10:04;15.90;99.90
15143;DHT22;7672;50.834;6.286;2022-07-06T03:12:31;15.90;99.90
15143;DHT22;7672;50.834;6.286;2022-07-06T03:14:58;15.90;99.90
15143;DHT22;7672;50.834;6.286;2022-07-06T03:17:25;15.80;99.90
15143;DHT22;7672;50.834;6.286;2022-07-06T03:19:52;15.80;99.90
15143;DHT22;7672;50.834;6.286;2022-07-06T03:22:19;15.80;99.90
15143;DHT22;7672;50.834;6.286;2022-07-06T03:24:45;15.80;99.90
15143;DHT22;7672;50.834;6.286;2022-07-06T03:27:12;15.80;99.90
15143;DHT22;7672;50.834;6.286;2022-07-06T03:29:39;15.80;99.90
15143;DHT22;7672;50.834;6.286;2022-07-06T03:32:07;15.80;99.90
15143;DHT22;7672;50.834;6.286;2022-07-06T03:34:34;15.80;99.90
15143;DHT22;7672;50.834;6.286;2022-07-06T03:37:01;15.80;99.90
15143;DHT22;7672;50.834;6.286;2022-07-06T03:39:28;15.80;99.90
15143;DHT22;7672;50.834;6.286;2022-07-06T03:41:55;15.80;99.90
15143;DHT22;7672;50.834;6.286;2022-07-06T03:44:21;15.80;99.90
15143;DHT22;7672;50.834;6.286;2022-07-06T03:46:48;15.80;99.90
15143;DHT22;7672;50.834;6.286;2022-07-06T03:49:17;15.80;99.90
15143;DHT22;7672;50.834;6.286;2022-07-06T03:51:44;15.80;99.90
15143;DHT22;7672;50.834;6.286;2022-07-06T03:54:11;15.90;99.90
15143;DHT22;7672;50.834;6.286;2022-07-06T03:56:38;15.80;99.90
15143;DHT22;7672;50.834;6.286;2022-07-06T03:59:05;15.70;99.90
15143;DHT22;7672;50.834;6.286;2022-07-06T04:01:32;15.80;99.90
15143;DHT22;7672;50.834;6.286;2022-07-06T04:03:59;15.80;99.90
15143;DHT22;7672;50.834;6.286;2022-07-06T04:06:25;15.80;99.90
15143;DHT22;7672;50.834;6.286;2022-07-06T04:08:52;15.80;99.90
15143;DHT22;7672;50.834;6.286;2022-07-06T04:11:19;15.90;99.90
15143;DHT22;7672;50.834;6.286;2022-07-06T04:13:46;16.00;99.90
15143;DHT22;7672;50.834;6.286;2022-07-06T04:16:13;16.00;99.90
15143;DHT22;7672;50.834;6.286;2022-07-06T04:18:40;16.10;99.90
15143;DHT22;7672;50.834;6.286;2022-07-06T04:21:07;16.10;99.90
15143;DHT22;7672;50.834;6.286;2022-07-06T04:23:34;16.30;99.90
15143;DHT22;7672;50.834;6.286;2022-07-06T04:26:00;16.40;99.90
15143;DHT22;7672;50.834;6.286;2022-07-06T04:28:27;16.50;99.90
15143;DHT22;7672;50.834;6.286;2022-07-06T04:30:54;16.60;99.90
15143;DHT22;7672;50.834;6.286;2022-07-06T04:33:21;16.70;99.90
15143;DHT22;7672;50.834;6.286;2022-07-06T04:35:48;16.90;99.90
15143;DHT22;7672;50.834;6.286;2022-07-06T04:38:14;17.10;99.90
15143;DHT22;7672;50.834;6.286;2022-07-06T04:40:41;17.40;99.90
15143;DHT22;7672;50.834;6.286;2022-07-06T04:43:08;17.40;99.90
15143;DHT22;7672;50.834;6.286;2022-07-06T04:45:35;17.50;99.90
15143;DHT22;7672;50.834;6.286;2022-07-06T04:48:02;17.70;99.90
15143;DHT22;7672;50.834;6.286;2022-07-06T04:50:29;17.90;99.90
15143;DHT22;7672;50.834;6.286;2022-07-06T04:53:00;18.00;99.90
15143;DHT22;7672;50.834;6.286;2022-07-06T04:55:27;18.20;99.90
15143;DHT22;7672;50.834;6.286;2022-07-06T04:57:53;18.40;99.90
15143;DHT22;7672;50.834;6.286;2022-07-06T05:00:21;18.60;99.90
15143;DHT22;7672;50.834;6.286;2022-07-06T05:02:48;18.80;99.90
15143;DHT22;7672;50.834;6.286;2022-07-06T05:05:15;19.00;99.90
15143;DHT22;7672;50.834;6.286;2022-07-06T05:07:42;19.20;99.90
15143;DHT22;7672;50.834;6.286;2022-07-06T05:10:10;19.30;99.90
15143;DHT22;7672;50.834;6.286;2022-07-06T05:12:38;19.50;99.90
15143;DHT22;7672;50.834;6.286;2022-07-06T05:15:05;19.80;99.90
15143;DHT22;7672;50.834;6.286;2022-07-06T05:17:33;19.90;99.90
15143;DHT22;7672;50.834;6.286;2022-07-06T05:20:00;20.00;99.90
15143;DHT22;7672;50.834;6.286;2022-07-06T05:22:27;20.30;99.90
15143;DHT22;7672;50.834;6.286;2022-07-06T05:24:53;20.40;99.90
15143;DHT22;7672;50.834;6.286;2022-07-06T05:27:20;20.60;99.90
15143;DHT22;7672;50.834;6.286;2022-07-06T05:29:47;20.90;99.90
15143;DHT22;7672;50.834;6.286;2022-07-06T05:32:14;21.00;99.90
15143;DHT22;7672;50.834;6.286;2022-07-06T05:34:41;21.30;99.90
15143;DHT22;7672;50.834;6.286;2022-07-06T05:37:07;21.40;99.90
15143;DHT22;7672;50.834;6.286;2022-07-06T05:39:34;21.50;99.90
15143;DHT22;7672;50.834;6.286;2022-07-06T05:42:01;21.60;99.90
15143;DHT22;7672;50.834;6.286;2022-07-06T05:44:28;21.70;99.90
15143;DHT22;7672;50.834;6.286;2022-07-06T05:46:55;21.70;99.90
15143;DHT22;7672;50.834;6.286;2022-07-06T05:49:42;21.70;99.90
15143;DHT22;7672;50.834;6.286;2022-07-06T05:52:27;21.70;99.90
15143;DHT22;7672;50.834;6.286;2022-07-06T05:54:54;21.70;99.90
15143;DHT22;7672;50.834;6.286;2022-07-06T05:57:21;21.70;99.90
15143;DHT22;7672;50.834;6.286;2022-07-06T05:59:48;21.70;99.90
15143;DHT22;7672;50.834;6.286;2022-07-06T06:02:15;21.80;99.90
15143;DHT22;7672;50.834;6.286;2022-07-06T06:04:42;21.90;99.90
15143;DHT22;7672;50.834;6.286;2022-07-06T06:07:08;22.00;99.90
15143;DHT22;7672;50.834;6.286;2022-07-06T06:09:35;22.10;99.90
15143;DHT22;7672;50.834;6.286;2022-07-06T06:12:02;22.20;99.90
15143;DHT22;7672;50.834;6.286;2022-07-06T06:14:29;22.40;99.90
15143;DHT22;7672;50.834;6.286;2022-07-06T06:16:57;22.50;99.90
15143;DHT22;7672;50.834;6.286;2022-07-06T06:19:24;22.70;99.90
15143;DHT22;7672;50.834;6.286;2022-07-06T06:21:51;22.80;99.90
15143;DHT22;7672;50.834;6.286;2022-07-06T06:24:18;23.00;99.90
15143;DHT22;7672;50.834;6.286;2022-07-06T06:26:45;23.20;99.90
15143;DHT22;7672;50.834;6.286;2022-07-06T06:29:11;23.40;99.90
15143;DHT22;7672;50.834;6.286;2022-07-06T06:31:38;23.70;99.90
15143;DHT22;7672;50.834;6.286;2022-07-06T06:34:07;23.90;99.90
15143;DHT22;7672;50.834;6.286;2022-07-06T06:36:34;24.00;99.90
15143;DHT22;7672;50.834;6.286;2022-07-06T06:39:01;24.20;99.90
15143;DHT22;7672;50.834;6.286;2022-07-06T06:41:28;24.70;99.90
15143;DHT22;7672;50.834;6.286;2022-07-06T06:43:55;24.70;99.90
15143;DHT22;7672;50.834;6.286;2022-07-06T06:46:22;24.90;99.90
15143;DHT22;7672;50.834;6.286;2022-07-06T06:48:49;25.00;99.90
15143;DHT22;7672;50.834;6.286;2022-07-06T06:51:16;25.10;99.90
15143;DHT22;7672;50.834;6.286;2022-07-06T06:53:43;25.30;99.80
15143;DHT22;7672;50.834;6.286;2022-07-06T06:56:10;25.40;99.50
15143;DHT22;7672;50.834;6.286;2022-07-06T06:58:37;25.50;99.00
15143;DHT22;7672;50.834;6.286;2022-07-06T07:01:24;25.60;97.60
15143;DHT22;7672;50.834;6.286;2022-07-06T07:03:51;25.70;96.90
15143;DHT22;7672;50.834;6.286;2022-07-06T07:06:18;25.60;96.90
15143;DHT22;7672;50.834;6.286;2022-07-06T07:08:45;25.70;97.30
15143;DHT22;7672;50.834;6.286;2022-07-06T07:11:12;25.70;97.30
15143;DHT22;7672;50.834;6.286;2022-07-06T07:13:39;25.70;97.70
15143;DHT22;7672;50.834;6.286;2022-07-06T07:16:06;25.80;97.20
15143;DHT22;7672;50.834;6.286;2022-07-06T07:18:33;25.90;96.80
15143;DHT22;7672;50.834;6.286;2022-07-06T07:21:00;25.90;96.50
15143;DHT22;7672;50.834;6.286;2022-07-06T07:23:27;26.10;96.20
15143;DHT22;7672;50.834;6.286;2022-07-06T07:25:54;26.00;94.90
15143;DHT22;7672;50.834;6.286;2022-07-06T07:28:20;26.00;95.00
15143;DHT22;7672;50.834;6.286;2022-07-06T07:30:49;26.10;94.30
15143;DHT22;7672;50.834;6.286;2022-07-06T07:33:17;26.00;93.90
15143;DHT22;7672;50.834;6.286;2022-07-06T07:35:44;25.90;93.00
15143;DHT22;7672;50.834;6.286;2022-07-06T07:38:11;25.80;93.10
15143;DHT22;7672;50.834;6.286;2022-07-06T07:40:37;25.80;92.90
15143;DHT22;7672;50.834;6.286;2022-07-06T07:43:04;25.70;93.00
15143;DHT22;7672;50.834;6.286;2022-07-06T07:45:31;25.50;92.40
15143;DHT22;7672;50.834;6.286;2022-07-06T07:47:58;25.40;92.80
15143;DHT22;7672;50.834;6.286;2022-07-06T07:50:25;25.20;92.90
15143;DHT22;7672;50.834;6.286;2022-07-06T07:52:53;25.10;93.10
15143;DHT22;7672;50.834;6.286;2022-07-06T07:55:20;24.90;92.70
15143;DHT22;7672;50.834;6.286;2022-07-06T07:58:06;24.70;92.20
15143;DHT22;7672;50.834;6.286;2022-07-06T08:00:33;24.60;92.50
15143;DHT22;7672;50.834;6.286;2022-07-06T08:03:00;24.40;93.70
15143;DHT22;7672;50.834;6.286;2022-07-06T08:05:27;24.20;93.80
15143;DHT22;7672;50.834;6.286;2022-07-06T08:07:54;24.20;93.50
15143;DHT22;7672;50.834;6.286;2022-07-06T08:10:21;24.10;93.70
15143;DHT22;7672;50.834;6.286;2022-07-06T08:12:48;24.10;93.70
15143;DHT22;7672;50.834;6.286;2022-07-06T08:15:15;24.10;93.10
15143;DHT22;7672;50.834;6.286;2022-07-06T08:17:42;24.10;93.60
15143;DHT22;7672;50.834;6.286;2022-07-06T08:20:09;24.30;93.80
15143;DHT22;7672;50.834;6.286;2022-07-06T08:22:36;24.10;93.60
15143;DHT22;7672;50.834;6.286;2022-07-06T08:25:04;24.30;93.70
15143;DHT22;7672;50.834;6.286;2022-07-06T08:27:32;24.10;92.80
15143;DHT22;7672;50.834;6.286;2022-07-06T08:29:59;24.20;92.80
15143;DHT22;7672;50.834;6.286;2022-07-06T08:32:27;24.10;92.50
15143;DHT22;7672;50.834;6.286;2022-07-06T08:35:14;24.00;92.70
15143;DHT22;7672;50.834;6.286;2022-07-06T08:37:41;24.00;93.00
15143;DHT22;7672;50.834;6.286;2022-07-06T08:40:08;23.90;93.70
15143;DHT22;7672;50.834;6.286;2022-07-06T08:42:36;23.90;94.00
15143;DHT22;7672;50.834;6.286;2022-07-06T08:45:06;23.90;93.60
15143;DHT22;7672;50.834;6.286;2022-07-06T08:47:36;23.90;93.60
15143;DHT22;7672;50.834;6.286;2022-07-06T08:50:05;24.00;93.20
15143;DHT22;7672;50.834;6.286;2022-07-06T08:52:32;24.00;93.80
15143;DHT22;7672;50.834;6.286;2022-07-06T08:55:00;24.00;94.00
15143;DHT22;7672;50.834;6.286;2022-07-06T08:57:28;24.00;93.20
15143;DHT22;7672;50.834;6.286;2022-07-06T08:59:55;24.10;94.40
15143;DHT22;7672;50.834;6.286;2022-07-06T09:02:25;24.30;94.40
15143;DHT22;7672;50.834;6.286;2022-07-06T09:04:55;24.30;94.40
15143;DHT22;7672;50.834;6.286;2022-07-06T09:07:27;24.40;93.90
15143;DHT22;7672;50.834;6.286;2022-07-06T09:10:17;24.80;92.80
15143;DHT22;7672;50.834;6.286;2022-07-06T09:12:45;24.70;92.10
15143;DHT22;7672;50.834;6.286;2022-07-06T09:15:12;24.70;92.80
15143;DHT22;7672;50.834;6.286;2022-07-06T09:17:41;24.80;91.90
15143;DHT22;7672;50.834;6.286;2022-07-06T09:20:11;24.90;91.50
15143;DHT22;7672;50.834;6.286;2022-07-06T09:22:40;24.90;92.40
15143;DHT22;7672;50.834;6.286;2022-07-06T09:25:14;24.90;91.40
15143;DHT22;7672;50.834;6.286;2022-07-06T09:27:46;24.90;91.40
15143;DHT22;7672;50.834;6.286;2022-07-06T09:30:17;24.90;91.40
15143;DHT22;7672;50.834;6.286;2022-07-06T09:32:47;24.90;91.90
15143;DHT22;7672;50.834;6.286;2022-07-06T09:35:23;24.90;92.30
15143;DHT22;7672;50.834;6.286;2022-07-06T09:38:08;25.00;91.30
15143;DHT22;7672;50.834;6.286;2022-07-06T09:40:42;25.00;90.60
15143;DHT22;7672;50.834;6.286;2022-07-06T09:43:21;25.20;92.50
15143;DHT22;7672;50.834;6.286;2022-07-06T09:45:51;25.50;90.60
15143;DHT22;7672;50.834;6.286;2022-07-06T09:48:27;25.90;91.30
15143;DHT22;7672;50.834;6.286;2022-07-06T09:51:00;26.40;91.10
15143;DHT22;7672;50.834;6.286;2022-07-06T09:53:35;26.90;91.40
15143;DHT22;7672;50.834;6.286;2022-07-06T09:56:02;27.50;87.70
15143;DHT22;7672;50.834;6.286;2022-07-06T09:58:31;27.90;87.20
15143;DHT22;7672;50.834;6.286;2022-07-06T10:01:27;28.40;85.10
15143;DHT22;7672;50.834;6.286;2022-07-06T10:03:56;28.80;78.70
15143;DHT22;7672;50.834;6.286;2022-07-06T10:06:25;29.00;80.00
15143;DHT22;7672;50.834;6.286;2022-07-06T10:08:54;29.10;78.70
15143;DHT22;7672;50.834;6.286;2022-07-06T10:11:22;29.20;77.60
15143;DHT22;7672;50.834;6.286;2022-07-06T10:13:54;29.10;78.60
15143;DHT22;7672;50.834;6.286;2022-07-06T10:16:23;29.00;75.30
15143;DHT22;7672;50.834;6.286;2022-07-06T10:18:52;28.80;76.00
15143;DHT22;7672;50.834;6.286;2022-07-06T10:21:23;28.70;76.60
15143;DHT22;7672;50.834;6.286;2022-07-06T10:23:50;28.50;77.80
15143;DHT22;7672;50.834;6.286;2022-07-06T10:26:19;28.50;77.10
15143;DHT22;7672;50.834;6.286;2022-07-06T10:28:50;28.50;78.00
15143;DHT22;7672;50.834;6.286;2022-07-06T10:31:19;28.50;76.50
15143;DHT22;7672;50.834;6.286;2022-07-06T10:33:47;28.50;75.90
15143;DHT22;7672;50.834;6.286;2022-07-06T10:36:15;28.60;78.00
15143;DHT22;7672;50.834;6.286;2022-07-06T10:38:48;28.70;76.50
15143;DHT22;7672;50.834;6.286;2022-07-06T10:41:16;28.80;74.10
15143;DHT22;7672;50.834;6.286;2022-07-06T10:43:45;29.00;76.20
15143;DHT22;7672;50.834;6.286;2022-07-06T10:46:16;29.10;74.40
15143;DHT22;7672;50.834;6.286;2022-07-06T10:48:47;29.30;72.50
15143;DHT22;7672;50.834;6.286;2022-07-06T10:51:25;29.50;73.70
15143;DHT22;7672;50.834;6.286;2022-07-06T10:53:58;29.70;74.20
15143;DHT22;7672;50.834;6.286;2022-07-06T10:56:39;29.90;74.90
15143;DHT22;7672;50.834;6.286;2022-07-06T10:59:09;30.20;74.70
15143;DHT22;7672;50.834;6.286;2022-07-06T11:01:38;30.40;73.70
15143;DHT22;7672;50.834;6.286;2022-07-06T11:04:15;30.70;72.80
15143;DHT22;7672;50.834;6.286;2022-07-06T11:06:45;30.90;70.20
15143;DHT22;7672;50.834;6.286;2022-07-06T11:09:14;31.00;69.00
15143;DHT22;7672;50.834;6.286;2022-07-06T11:11:42;31.10;68.70
15143;DHT22;7672;50.834;6.286;2022-07-06T11:14:17;31.10;69.20
15143;DHT22;7672;50.834;6.286;2022-07-06T11:19:16;30.90;68.10
15143;DHT22;7672;50.834;6.286;2022-07-06T11:21:50;30.70;67.70
15143;DHT22;7672;50.834;6.286;2022-07-06T11:24:37;30.50;70.00
15143;DHT22;7672;50.834;6.286;2022-07-06T11:27:07;30.30;70.10
15143;DHT22;7672;50.834;6.286;2022-07-06T11:29:35;30.10;68.70
15143;DHT22;7672;50.834;6.286;2022-07-06T11:32:07;30.00;71.10
15143;DHT22;7672;50.834;6.286;2022-07-06T11:34:42;29.90;72.40
15143;DHT22;7672;50.834;6.286;2022-07-06T11:37:14;29.90;71.40
15143;DHT22;7672;50.834;6.286;2022-07-06T11:39:42;29.90;68.40
15143;DHT22;7672;50.834;6.286;2022-07-06T11:42:11;29.90;67.80
15143;DHT22;7672;50.834;6.286;2022-07-06T11:44:40;29.90;69.70
15143;DHT22;7672;50.834;6.286;2022-07-06T11:47:09;29.80;71.50
15143;DHT22;7672;50.834;6.286;2022-07-06T11:49:39;29.80;69.40
15143;DHT22;7672;50.834;6.286;2022-07-06T11:52:11;29.80;69.70
15143;DHT22;7672;50.834;6.286;2022-07-06T11:54:42;29.70;70.70
15143;DHT22;7672;50.834;6.286;2022-07-06T11:57:10;29.60;70.40
15143;DHT22;7672;50.834;6.286;2022-07-06T11:59:40;29.60;69.70
15143;DHT22;7672;50.834;6.286;2022-07-06T12:02:10;29.50;69.90
15143;DHT22;7672;50.834;6.286;2022-07-06T12:04:44;29.50;70.90
15143;DHT22;7672;50.834;6.286;2022-07-06T12:07:16;29.40;69.80
15143;DHT22;7672;50.834;6.286;2022-07-06T12:09:47;29.50;68.70
15143;DHT22;7672;50.834;6.286;2022-07-06T12:12:14;29.50;68.70
15143;DHT22;7672;50.834;6.286;2022-07-06T12:14:43;29.50;70.70
15143;DHT22;7672;50.834;6.286;2022-07-06T12:17:14;29.40;70.20
15143;DHT22;7672;50.834;6.286;2022-07-06T12:19:42;29.50;69.00
15143;DHT22;7672;50.834;6.286;2022-07-06T12:22:10;29.40;68.50
15143;DHT22;7672;50.834;6.286;2022-07-06T12:24:42;29.50;69.30
15143;DHT22;7672;50.834;6.286;2022-07-06T12:27:14;29.40;70.60
15143;DHT22;7672;50.834;6.286;2022-07-06T12:29:46;29.40;70.50
15143;DHT22;7672;50.834;6.286;2022-07-06T12:32:15;29.50;70.20
15143;DHT22;7672;50.834;6.286;2022-07-06T12:34:42;29.40;69.50
15143;DHT22;7672;50.834;6.286;2022-07-06T12:37:12;29.60;69.90
15143;DHT22;7672;50.834;6.286;2022-07-06T12:39:42;29.60;71.40
15143;DHT22;7672;50.834;6.286;2022-07-06T12:42:15;29.70;72.90
15143;DHT22;7672;50.834;6.286;2022-07-06T12:44:47;29.80;73.40
15143;DHT22;7672;50.834;6.286;2022-07-06T12:47:20;29.80;70.90
15143;DHT22;7672;50.834;6.286;2022-07-06T12:52:34;29.90;71.30
15143;DHT22;7672;50.834;6.286;2022-07-06T12:55:03;30.00;69.80
15143;DHT22;7672;50.834;6.286;2022-07-06T12:57:45;29.90;69.50
15143;DHT22;7672;50.834;6.286;2022-07-06T13:00:14;29.90;70.30
15143;DHT22;7672;50.834;6.286;2022-07-06T13:02:50;29.90;70.60
15143;DHT22;7672;50.834;6.286;2022-07-06T13:05:38;29.90;69.80
15143;DHT22;7672;50.834;6.286;2022-07-06T13:08:05;29.80;69.60
15143;DHT22;7672;50.834;6.286;2022-07-06T13:10:33;29.80;70.10
15143;DHT22;7672;50.834;6.286;2022-07-06T13:13:02;29.80;69.90
15143;DHT22;7672;50.834;6.286;2022-07-06T13:15:29;29.80;70.60
15143;DHT22;7672;50.834;6.286;2022-07-06T13:17:55;29.70;69.70
15143;DHT22;7672;50.834;6.286;2022-07-06T13:20:22;29.90;68.80
15143;DHT22;7672;50.834;6.286;2022-07-06T13:22:49;29.80;70.50
15143;DHT22;7672;50.834;6.286;2022-07-06T13:25:17;30.00;70.30
15143;DHT22;7672;50.834;6.286;2022-07-06T13:27:43;30.00;72.10
15143;DHT22;7672;50.834;6.286;2022-07-06T13:30:11;30.10;71.10
15143;DHT22;7672;50.834;6.286;2022-07-06T13:32:38;30.20;69.60
15143;DHT22;7672;50.834;6.286;2022-07-06T13:35:06;30.20;69.80
15143;DHT22;7672;50.834;6.286;2022-07-06T13:37:33;30.20;69.50
15143;DHT22;7672;50.834;6.286;2022-07-06T13:40:00;30.20;69.70
15143;DHT22;7672;50.834;6.286;2022-07-06T13:42:27;30.20;68.00
15143;DHT22;7672;50.834;6.286;2022-07-06T13:44:54;30.20;68.90
15143;DHT22;7672;50.834;6.286;2022-07-06T13:47:21;30.10;68.20
15143;DHT22;7672;50.834;6.286;2022-07-06T13:49:48;30.20;69.30
15143;DHT22;7672;50.834;6.286;2022-07-06T13:52:16;30.10;69.60
15143;DHT22;7672;50.834;6.286;2022-07-06T13:54:43;30.10;69.20
15143;DHT22;7672;50.834;6.286;2022-07-06T13:57:09;30.20;68.10
15143;DHT22;7672;50.834;6.286;2022-07-06T13:59:36;30.10;69.10
15143;DHT22;7672;50.834;6.286;2022-07-06T14:02:03;30.10;68.80
15143;DHT22;7672;50.834;6.286;2022-07-06T14:04:30;30.00;69.40
15143;DHT22;7672;50.834;6.286;2022-07-06T14:06:57;30.10;69.70
15143;DHT22;7672;50.834;6.286;2022-07-06T14:09:24;30.00;68.90
15143;DHT22;7672;50.834;6.286;2022-07-06T14:11:51;29.90;69.50
15143;DHT22;7672;50.834;6.286;2022-07-06T14:14:18;29.90;68.00
15143;DHT22;7672;50.834;6.286;2022-07-06T14:16:44;29.90;68.40
15143;DHT22;7672;50.834;6.286;2022-07-06T14:19:12;29.80;68.80
15143;DHT22;7672;50.834;6.286;2022-07-06T14:21:46;29.90;68.10
15143;DHT22;7672;50.834;6.286;2022-07-06T14:24:14;29.90;67.50
15143;DHT22;7672;50.834;6.286;2022-07-06T14:26:41;29.80;67.70
15143;DHT22;7672;50.834;6.286;2022-07-06T14:29:08;29.80;69.00
15143;DHT22;7672;50.834;6.286;2022-07-06T14:31:35;29.80;68.30
15143;DHT22;7672;50.834;6.286;2022-07-06T14:34:01;29.70;68.30
15143;DHT22;7672;50.834;6.286;2022-07-06T14:36:28;29.70;68.40
15143;DHT22;7672;50.834;6.286;2022-07-06T14:38:56;29.60;68.40
15143;DHT22;7672;50.834;6.286;2022-07-06T14:41:22;29.70;69.20
15143;DHT22;7672;50.834;6.286;2022-07-06T14:43:49;29.70;68.30
15143;DHT22;7672;50.834;6.286;2022-07-06T14:46:16;29.70;67.90
15143;DHT22;7672;50.834;6.286;2022-07-06T14:48:43;29.60;68.90
15143;DHT22;7672;50.834;6.286;2022-07-06T14:51:09;29.70;69.00
15143;DHT22;7672;50.834;6.286;2022-07-06T14:53:36;29.70;69.30
15143;DHT22;7672;50.834;6.286;2022-07-06T14:56:04;29.60;68.30
15143;DHT22;7672;50.834;6.286;2022-07-06T14:58:30;29.60;68.20
15143;DHT22;7672;50.834;6.286;2022-07-06T15:00:58;29.60;68.20
15143;DHT22;7672;50.834;6.286;2022-07-06T15:03:28;29.60;67.90
15143;DHT22;7672;50.834;6.286;2022-07-06T15:05:57;29.60;69.30
15143;DHT22;7672;50.834;6.286;2022-07-06T15:08:24;29.50;69.00
15143;DHT22;7672;50.834;6.286;2022-07-06T15:10:51;29.50;68.60
15143;DHT22;7672;50.834;6.286;2022-07-06T15:13:18;29.40;68.80
15143;DHT22;7672;50.834;6.286;2022-07-06T15:15:44;29.40;69.10
15143;DHT22;7672;50.834;6.286;2022-07-06T15:18:24;29.40;70.10
15143;DHT22;7672;50.834;6.286;2022-07-06T15:20:51;29.30;70.90
15143;DHT22;7672;50.834;6.286;2022-07-06T15:23:18;29.30;69.60
15143;DHT22;7672;50.834;6.286;2022-07-06T15:25:45;29.20;69.10
15143;DHT22;7672;50.834;6.286;2022-07-06T15:28:21;29.20;69.10
15143;DHT22;7672;50.834;6.286;2022-07-06T15:30:50;29.20;71.10
15143;DHT22;7672;50.834;6.286;2022-07-06T15:33:17;29.10;69.80
15143;DHT22;7672;50.834;6.286;2022-07-06T15:35:44;29.00;70.20
15143;DHT22;7672;50.834;6.286;2022-07-06T15:38:11;29.00;69.30
15143;DHT22;7672;50.834;6.286;2022-07-06T15:40:37;29.00;69.90
15143;DHT22;7672;50.834;6.286;2022-07-06T15:43:11;28.90;70.20
15143;DHT22;7672;50.834;6.286;2022-07-06T15:45:38;28.90;70.20
15143;DHT22;7672;50.834;6.286;2022-07-06T15:48:06;28.90;70.20
15143;DHT22;7672;50.834;6.286;2022-07-06T15:50:34;28.90;70.20
15143;DHT22;7672;50.834;6.286;2022-07-06T15:53:03;28.80;69.80
15143;DHT22;7672;50.834;6.286;2022-07-06T15:55:30;28.70;69.60
15143;DHT22;7672;50.834;6.286;2022-07-06T15:57:57;28.60;69.60